»·PEaware :: N3141P KASE-KSLC

N3141P :: KASE-KSLC

FLIGHT INFORMATION

Flight Status: Arrived
Operator: Privately registered:
United States
More flights under this callsign
Pilot: Andrew N. (12823)
Aircraft: BEECH AIRCRAFT BEECH AIRLINER
(B190)
More flights by this aircraft type
Origin: KASE Aspen-Pitkin Co/Sardy
United States
Destination: KSLC Salt Lake City Intl
United States
More flights between these airports :: More routes between these airports
Route: +LINDZ8 EKR LEEHY4
File this flight plan on PilotEdge
Remarks:
Altitude:
(Current/Filed)
22,000ft
Speed:
(Current/Filed)
220kts
Departed: 09-Jan-17 08:54 PM
Arrived: 09-Jan-17 10:32 PM
Distance/Time
Traveled:
252nm/1:38
Distance/Time
To Go:
Arrived

Flight Plot

Page will automatically refresh every two minutes.


Map Options




Map Legend


Flown Route
Filed Route
Departure Airport
Arrival Airport
Navaid (VOR, NDB)
Fix

Horizontal Profiles

Position Reports

Time Latitude Longitude Heading Altitude Ground
Speed
09-Jan-17 20:40 39.222361 -106.866691 125 7822ft 0kts
09-Jan-17 20:41 39.222361 -106.866691 125 7822ft 0kts
09-Jan-17 20:42 39.222361 -106.866691 125 7822ft 0kts
09-Jan-17 20:43 39.222361 -106.866691 125 7822ft 0kts
09-Jan-17 20:44 39.222361 -106.866691 125 7822ft 0kts
09-Jan-17 20:45 39.222361 -106.866691 125 7822ft 0kts
09-Jan-17 20:46 39.222361 -106.866691 125 7822ft 0kts
09-Jan-17 20:47 39.222361 -106.866691 125 7822ft 0kts
09-Jan-17 20:48 39.222361 -106.866691 125 7822ft 0kts
09-Jan-17 20:49 39.222361 -106.866691 125 7822ft 0kts
09-Jan-17 20:50 39.219872 -106.866065 156 7822ft 17kts
09-Jan-17 20:51 39.214915 -106.863960 243 7822ft 0kts
09-Jan-17 20:52 39.214915 -106.863960 243 7822ft 0kts
09-Jan-17 20:53 39.214766 -106.864287 241 7822ft 11kts
09-Jan-17 20:54 39.217547 -106.866156 342 7822ft 72kts
09-Jan-17 20:55 39.251838 -106.880952 348 9619ft 143kts
09-Jan-17 20:56 39.269092 -106.925506 286 11893ft 197kts
09-Jan-17 20:57 39.283703 -106.997110 287 14205ft 204kts
09-Jan-17 20:58 39.315212 -107.051417 316 16757ft 183kts
09-Jan-17 20:59 39.346869 -107.098141 329 18539ft 165kts
09-Jan-17 21:00 39.372135 -107.132942 319 20187ft 113kts
09-Jan-17 21:01 39.385592 -107.168313 260 20999ft 138kts
09-Jan-17 21:02 39.375566 -107.226419 258 20975ft 189kts
09-Jan-17 21:03 39.362002 -107.295860 259 20954ft 209kts
09-Jan-17 21:04 39.346992 -107.374900 255 20968ft 247kts
09-Jan-17 21:05 39.329140 -107.464382 256 20964ft 268kts
09-Jan-17 21:06 39.310812 -107.557719 256 20964ft 276kts
09-Jan-17 21:07 39.326680 -107.631513 327 21986ft 225kts
09-Jan-17 21:08 39.381760 -107.658771 324 22881ft 212kts
09-Jan-17 21:09 39.436122 -107.681575 324 23885ft 203kts
09-Jan-17 21:10 39.488745 -107.702918 324 24596ft 208kts
09-Jan-17 21:11 39.550313 -107.727497 328 23940ft 252kts
09-Jan-17 21:12 39.617953 -107.752768 328 23805ft 253kts
09-Jan-17 21:13 39.684972 -107.778124 328 23805ft 250kts
09-Jan-17 21:14 39.750934 -107.803066 327 23827ft 245kts
09-Jan-17 21:15 39.816229 -107.828109 328 23859ft 247kts
09-Jan-17 21:16 39.881591 -107.853037 328 23858ft 248kts
09-Jan-17 21:17 39.946049 -107.877688 328 23858ft 249kts
09-Jan-17 21:18 40.011210 -107.902660 328 23858ft 249kts
09-Jan-17 21:19 40.063355 -107.941633 277 23879ft 201kts
09-Jan-17 21:20 40.070635 -108.013445 273 23856ft 203kts
09-Jan-17 21:21 40.074904 -108.086262 272 23854ft 203kts
09-Jan-17 21:22 40.078378 -108.158305 272 23835ft 201kts
09-Jan-17 21:23 40.081562 -108.230966 272 23820ft 203kts
09-Jan-17 21:24 40.084721 -108.304211 272 23795ft 204kts
09-Jan-17 21:25 40.087788 -108.376268 272 23764ft 204kts
09-Jan-17 21:26 40.090823 -108.448735 272 23726ft 204kts
09-Jan-17 21:27 40.093811 -108.521197 272 23827ft 200kts
09-Jan-17 21:28 40.096731 -108.592714 272 23950ft 198kts
09-Jan-17 21:29 40.099462 -108.662092 273 23974ft 199kts
09-Jan-17 21:30 40.102457 -108.727872 271 23968ft 200kts
09-Jan-17 21:31 40.105300 -108.800056 271 23966ft 203kts
09-Jan-17 21:32 40.108053 -108.871583 271 23965ft 203kts
09-Jan-17 21:33 40.110786 -108.943734 271 23964ft 204kts
09-Jan-17 21:34 40.113936 -109.016500 272 23963ft 204kts
09-Jan-17 21:35 40.118311 -109.089401 273 23961ft 204kts
09-Jan-17 21:36 40.123941 -109.162404 274 23960ft 203kts
09-Jan-17 21:37 40.130814 -109.235375 277 23968ft 201kts
09-Jan-17 21:38 40.139330 -109.313010 276 22700ft 234kts
09-Jan-17 21:39 40.149498 -109.395914 277 21878ft 232kts
09-Jan-17 21:40 40.160564 -109.474600 278 21875ft 219kts
09-Jan-17 21:41 40.172668 -109.550380 279 21875ft 215kts
09-Jan-17 21:42 40.185826 -109.624071 280 21874ft 213kts
09-Jan-17 21:43 40.199207 -109.692154 281 21887ft 214kts
09-Jan-17 21:44 40.214834 -109.765098 282 21887ft 215kts
09-Jan-17 21:45 40.232167 -109.839469 283 21895ft 212kts
09-Jan-17 21:46 40.252083 -109.912592 285 21885ft 215kts
09-Jan-17 21:47 40.266261 -109.986208 248 21890ft 216kts
09-Jan-17 21:48 40.245341 -110.058854 261 21748ft 220kts
09-Jan-17 21:49 40.234911 -110.145042 264 19773ft 255kts
09-Jan-17 21:50 40.226453 -110.233595 265 17736ft 241kts
09-Jan-17 21:51 40.219180 -110.316902 265 16906ft 224kts
09-Jan-17 21:52 40.212309 -110.394469 265 16910ft 206kts
09-Jan-17 21:53 40.205825 -110.467113 265 16911ft 200kts
09-Jan-17 21:54 40.199337 -110.539104 265 16911ft 198kts
09-Jan-17 21:55 40.192852 -110.610700 265 16940ft 203kts
09-Jan-17 21:56 40.186186 -110.685216 265 16949ft 214kts
09-Jan-17 21:57 40.179261 -110.762622 265 16947ft 217kts
09-Jan-17 21:58 40.172118 -110.840107 265 16946ft 216kts
09-Jan-17 21:59 40.164806 -110.918520 265 16945ft 218kts
09-Jan-17 22:00 40.155834 -111.013744 265 16944ft 218kts
09-Jan-17 22:01 40.146127 -111.115867 265 16943ft 221kts
09-Jan-17 22:02 40.136834 -111.214865 268 16940ft 221kts
09-Jan-17 22:03 40.135076 -111.310793 269 16941ft 220kts
09-Jan-17 22:04 40.133377 -111.404701 269 16932ft 216kts
09-Jan-17 22:05 40.131845 -111.485620 269 16991ft 218kts
09-Jan-17 22:06 40.136000 -111.561872 292 17010ft 221kts
09-Jan-17 22:07 40.162121 -111.633106 291 16982ft 222kts
09-Jan-17 22:08 40.189382 -111.706593 291 16993ft 223kts
09-Jan-17 22:09 40.216259 -111.779307 291 16952ft 225kts
09-Jan-17 22:10 40.242815 -111.851527 291 16981ft 223kts
09-Jan-17 22:11 40.269310 -111.923888 291 16990ft 224kts
09-Jan-17 22:12 40.322039 -111.975221 318 15348ft 247kts
09-Jan-17 22:13 40.376343 -112.016774 320 14985ft 220kts
09-Jan-17 22:14 40.433104 -112.052319 346 14481ft 261kts
09-Jan-17 22:15 40.507732 -112.061172 346 12499ft 274kts
09-Jan-17 22:16 40.584156 -112.071549 353 10995ft 274kts
09-Jan-17 22:17 40.655431 -112.080438 355 10984ft 256kts
09-Jan-17 22:18 40.724792 -112.088451 355 10986ft 250kts
09-Jan-17 22:19 40.792728 -112.096433 355 10986ft 249kts
09-Jan-17 22:20 40.861426 -112.104591 355 10986ft 249kts
09-Jan-17 22:21 40.931258 -112.114241 354 9568ft 253kts
09-Jan-17 22:22 40.999290 -112.124685 354 7998ft 232kts
09-Jan-17 22:23 41.053311 -112.117727 65 7955ft 188kts
09-Jan-17 22:24 41.054389 -112.051659 93 7959ft 178kts
09-Jan-17 22:25 41.032275 -112.001105 153 7962ft 176kts
09-Jan-17 22:26 40.988608 -111.972038 153 7986ft 177kts
09-Jan-17 22:27 40.941504 -111.962914 178 7140ft 149kts
09-Jan-17 22:28 40.902991 -111.962731 178 6311ft 124kts
09-Jan-17 22:29 40.867239 -111.962525 178 5589ft 131kts
09-Jan-17 22:30 40.832085 -111.962090 176 4850ft 116kts
09-Jan-17 22:31 40.802694 -111.962041 179 4347ft 97kts
09-Jan-17 22:32 40.787384 -111.962036 177 4201ft 23kts
09-Jan-17 22:33 40.784859 -111.959183 259 4201ft 0kts

Navigation Log

Ident Type
1. KASE Airport
2. LINDZ Fix
3. LINDZ Fix
4. SLOLM Fix
5. RIL Navaid
6. EKR Navaid
7. EKR Navaid
8. RACER Fix
9. MTU Navaid
10. THISL Fix
11. SPANE Fix
12. LEEHY Fix
13. BLUPE Fix
14. KAMMP Fix
15. PLAGE Fix
16. KSLC Airport